Time;durP1;ratioP1;P1;durP2;ratioP2;P2;SDS_P1;SDS_P2;PMS_P1;PMS_P2;Temp;Humidity;BMP_temperature;BMP_pressure;BME280_temperature;BME280_humidity;BME280_pressure;Samples;Min_cycle;Max_cycle;Signal;HPM_P1;HPM_P2
2022/09/12 00:02:23;;;;;;;2.35;2.15;;;11.90;99.90;;;;;;4988297;28;20053;-88
2022/09/12 00:04:50;;;;;;;4.20;2.03;;;11.70;99.90;;;;;;4990348;28;20034;-88
2022/09/12 00:07:15;;;;;;;11.48;2.10;;;11.50;99.90;;;;;;5001763;28;20044;-88
2022/09/12 00:09:41;;;;;;;5.80;1.33;;;11.40;99.90;;;;;;4989662;28;20930;-88
2022/09/12 00:12:07;;;;;;;1.60;1.52;;;11.30;99.90;;;;;;4990427;28;20037;-88
2022/09/12 00:14:33;;;;;;;1.70;1.60;;;11.40;99.90;;;;;;4984736;28;20147;-87
2022/09/12 00:17:00;;;;;;;2.08;1.58;;;11.50;99.90;;;;;;4989027;28;20085;-88
2022/09/12 00:19:26;;;;;;;1.50;1.40;;;11.50;99.90;;;;;;4989423;28;20022;-87
2022/09/12 00:21:52;;;;;;;1.73;1.60;;;11.60;99.90;;;;;;4990441;28;20045;-88
2022/09/12 00:24:18;;;;;;;2.08;1.80;;;11.60;99.90;;;;;;4990529;28;20026;-88
2022/09/12 00:26:44;;;;;;;1.85;1.70;;;11.60;99.90;;;;;;4987041;28;20037;-88
2022/09/12 00:29:16;;;;;;;1.92;1.73;;;11.60;99.90;;;;;;4987109;28;20030;-87
2022/09/12 00:31:41;;;;;;;2.67;2.00;;;11.40;99.90;;;;;;4985509;28;20038;-88
2022/09/12 00:34:09;;;;;;;3.35;2.28;;;11.20;99.90;;;;;;4989471;28;20519;-87
2022/09/12 00:36:35;;;;;;;6.18;2.60;;;11.30;99.90;;;;;;5018771;28;20034;-88
2022/09/12 00:39:02;;;;;;;7.38;2.80;;;11.40;99.90;;;;;;5005010;28;20116;-88
2022/09/12 00:41:37;;;;;;;4.22;2.42;;;11.40;99.90;;;;;;4989185;28;20026;-88
2022/09/12 00:44:08;;;;;;;4.30;2.67;;;11.40;99.90;;;;;;5003265;28;20030;-87
2022/09/12 00:47:09;;;;;;;3.28;2.38;;;11.50;99.90;;;;;;5018389;28;20820;-87
2022/09/12 00:50:10;;;;;;;2.15;1.95;;;11.50;99.90;;;;;;4981636;28;20037;-87
2022/09/12 00:52:52;;;;;;;2.40;2.20;;;11.50;99.90;;;;;;4980655;28;20034;-88
2022/09/12 00:55:54;;;;;;;2.03;1.92;;;11.40;99.90;;;;;;4987480;28;20025;-87
2022/09/12 00:58:36;;;;;;;2.83;1.70;;;11.50;99.90;;;;;;4926255;28;20023;-88
2022/09/12 01:01:03;;;;;;;1.98;1.88;;;11.40;99.90;;;;;;4968529;28;20141;-89
2022/09/12 01:03:30;;;;;;;1.98;1.88;;;11.40;99.90;;;;;;4978171;28;20037;-89
2022/09/12 01:06:10;;;;;;;2.15;1.90;;;11.40;99.90;;;;;;4989480;28;20656;-89
2022/09/12 01:08:39;;;;;;;2.15;2.03;;;11.40;99.90;;;;;;4989248;28;20042;-89
2022/09/12 01:11:07;;;;;;;4.28;2.03;;;11.20;99.90;;;;;;4996805;28;20073;-89
2022/09/12 01:13:34;;;;;;;2.45;2.00;;;11.00;99.90;;;;;;5006964;28;20030;-89
2022/09/12 01:16:04;;;;;;;4.30;2.17;;;10.60;99.90;;;;;;5021724;28;20026;-89
2022/09/12 01:18:39;;;;;;;3.33;1.95;;;10.40;99.90;;;;;;5009025;28;20030;-88
2022/09/12 01:21:14;;;;;;;1.80;1.70;;;10.20;99.90;;;;;;5025945;28;20084;-89
2022/09/12 01:24:06;;;;;;;2.03;1.90;;;10.10;99.90;;;;;;5009968;28;20010;-89
2022/09/12 01:26:31;;;;;;;1.70;1.60;;;10.40;99.90;;;;;;4985788;28;22291;-90
2022/09/12 01:29:34;;;;;;;1.58;1.30;;;10.50;99.90;;;;;;4989651;28;20112;-89
2022/09/12 01:32:21;;;;;;;0.95;0.95;;;10.60;99.90;;;;;;4989386;28;20109;-89
2022/09/12 01:34:59;;;;;;;1.40;1.30;;;10.70;99.90;;;;;;5020671;28;20034;-88
2022/09/12 01:38:10;;;;;;;1.60;1.50;;;10.60;99.90;;;;;;4987326;28;20038;-88
2022/09/12 01:40:48;;;;;;;3.20;1.63;;;10.60;99.90;;;;;;5000349;28;20130;-89
2022/09/12 01:43:48;;;;;;;1.90;1.80;;;10.60;99.90;;;;;;4999534;28;20052;-88
2022/09/12 01:46:20;;;;;;;1.88;1.77;;;10.70;99.90;;;;;;4987244;28;20176;-89
2022/09/12 01:49:00;;;;;;;3.95;1.98;;;10.80;99.90;;;;;;4984395;28;20497;-88
2022/09/12 01:51:38;;;;;;;2.65;2.13;;;10.80;99.90;;;;;;4985064;28;20040;-89
2022/09/12 01:54:12;;;;;;;3.08;1.80;;;10.70;99.90;;;;;;4987490;28;20034;-89
2022/09/12 01:56:41;;;;;;;2.30;1.77;;;10.60;99.90;;;;;;4986270;28;21064;-89
2022/09/12 01:59:23;;;;;;;2.72;2.28;;;10.70;99.90;;;;;;4990396;28;20120;-89
2022/09/12 02:02:19;;;;;;;1.90;1.80;;;10.70;99.90;;;;;;4989463;28;20544;-88
2022/09/12 02:04:54;;;;;;;2.10;1.70;;;10.70;99.90;;;;;;4978264;28;20133;-89
2022/09/12 02:07:35;;;;;;;3.28;2.00;;;10.80;99.90;;;;;;4992206;28;20056;-88
2022/09/12 02:10:19;;;;;;;1.50;1.40;;;10.80;99.90;;;;;;4993478;28;20154;-89
2022/09/12 02:13:07;;;;;;;1.00;1.00;;;10.70;99.90;;;;;;4993251;28;20449;-89
2022/09/12 02:15:44;;;;;;;0.98;0.98;;;10.50;99.90;;;;;;4990583;28;20091;-88
2022/09/12 02:18:17;;;;;;;0.98;0.98;;;10.50;99.90;;;;;;4988929;28;20050;-89
2022/09/12 02:20:46;;;;;;;1.10;1.10;;;10.50;99.90;;;;;;4988614;28;20030;-88
2022/09/12 02:23:21;;;;;;;1.00;1.00;;;10.50;99.90;;;;;;4989490;28;20022;-89
2022/09/12 02:25:51;;;;;;;1.00;1.00;;;10.50;99.90;;;;;;4988067;28;20025;-89
2022/09/12 02:28:40;;;;;;;1.60;1.38;;;10.50;99.90;;;;;;4990611;28;20426;-89
2022/09/12 02:31:16;;;;;;;1.50;1.40;;;10.50;99.90;;;;;;4987821;28;20038;-89
2022/09/12 02:33:48;;;;;;;1.08;1.08;;;10.50;99.90;;;;;;4991942;28;20029;-89
2022/09/12 02:36:33;;;;;;;1.15;1.10;;;10.50;99.90;;;;;;5006053;28;21552;-88
2022/09/12 02:38:59;;;;;;;1.75;0.98;;;10.40;99.90;;;;;;5021554;28;20038;-89
2022/09/12 02:41:25;;;;;;;0.50;0.50;;;10.40;99.90;;;;;;4991510;28;20034;-89
2022/09/12 02:43:53;;;;;;;0.65;0.65;;;10.30;99.90;;;;;;5003297;28;20037;-89
2022/09/12 02:46:28;;;;;;;0.60;0.60;;;10.10;99.90;;;;;;4989112;28;20022;-89
2022/09/12 02:48:55;;;;;;;1.00;1.00;;;10.10;99.90;;;;;;4988684;28;21814;-89
2022/09/12 02:51:21;;;;;;;0.93;0.93;;;10.10;99.90;;;;;;4990442;28;20026;-88
2022/09/12 02:53:47;;;;;;;0.90;0.90;;;10.10;99.90;;;;;;4989631;28;20034;-89
2022/09/12 02:56:20;;;;;;;1.05;1.05;;;10.10;99.90;;;;;;4988968;28;20052;-89
2022/09/12 02:58:46;;;;;;;1.00;1.00;;;10.20;99.90;;;;;;5006962;28;20030;-88
2022/09/12 03:01:18;;;;;;;1.42;1.33;;;10.10;99.90;;;;;;4986757;28;20041;-88
2022/09/12 03:04:07;;;;;;;1.20;1.20;;;10.10;99.90;;;;;;4988440;28;20061;-89
2022/09/12 03:06:40;;;;;;;1.10;1.10;;;10.10;99.90;;;;;;5022349;28;20028;-88
2022/09/12 03:09:40;;;;;;;1.55;1.45;;;10.10;99.90;;;;;;4993189;28;20113;-89
2022/09/12 03:12:27;;;;;;;1.60;1.50;;;10.00;99.90;;;;;;4905285;28;20243;-88
2022/09/12 03:15:06;;;;;;;1.70;1.60;;;10.10;99.90;;;;;;4988866;28;20080;-89
2022/09/12 03:17:42;;;;;;;1.70;1.60;;;10.00;99.90;;;;;;4987376;28;20041;-90
2022/09/12 03:20:32;;;;;;;1.70;1.60;;;10.00;99.90;;;;;;4989734;28;20030;-89
2022/09/12 03:23:15;;;;;;;1.65;1.55;;;10.10;99.90;;;;;;4993618;28;20096;-89
2022/09/12 03:25:53;;;;;;;1.63;1.52;;;10.00;99.90;;;;;;4995289;28;20058;-89
2022/09/12 03:28:21;;;;;;;4.15;1.52;;;10.00;99.90;;;;;;4991433;28;20041;-89
2022/09/12 03:30:50;;;;;;;3.47;1.77;;;10.00;99.90;;;;;;4989856;28;20109;-89
2022/09/12 03:33:21;;;;;;;1.90;1.70;;;10.10;99.90;;;;;;4984505;28;20480;-89
2022/09/12 03:35:48;;;;;;;1.60;1.50;;;10.00;99.90;;;;;;4990288;28;20117;-89
2022/09/12 03:38:14;;;;;;;1.75;1.65;;;9.90;99.90;;;;;;4994865;28;20482;-89
2022/09/12 03:40:40;;;;;;;1.25;1.25;;;9.90;99.90;;;;;;4994864;28;20065;-88
2022/09/12 03:43:08;;;;;;;1.38;1.27;;;9.90;99.90;;;;;;4993515;28;20176;-89
2022/09/12 03:45:34;;;;;;;1.17;1.15;;;9.90;99.90;;;;;;4990999;28;20054;-88
2022/09/12 03:48:00;;;;;;;1.15;1.15;;;9.90;99.90;;;;;;4990797;28;20140;-88
2022/09/12 03:50:26;;;;;;;1.67;1.40;;;10.00;99.90;;;;;;4989240;28;20732;-89
2022/09/12 03:52:52;;;;;;;1.10;1.10;;;10.00;99.90;;;;;;4991055;28;21281;-88
2022/09/12 03:55:18;;;;;;;1.63;1.52;;;10.00;99.90;;;;;;4992118;28;20018;-89
2022/09/12 03:57:44;;;;;;;1.23;1.20;;;9.90;99.90;;;;;;4995857;28;20029;-89
2022/09/12 04:00:11;;;;;;;2.00;1.90;;;9.80;99.90;;;;;;4992249;28;20035;-89
2022/09/12 04:02:37;;;;;;;3.88;1.70;;;9.90;99.90;;;;;;4991431;28;20538;-88
2022/09/12 04:05:03;;;;;;;1.65;1.55;;;9.80;99.90;;;;;;4992044;28;20021;-89
2022/09/12 04:07:29;;;;;;;2.40;1.77;;;9.90;99.90;;;;;;4996945;28;20517;-88
2022/09/12 04:09:55;;;;;;;1.75;1.65;;;9.90;99.90;;;;;;5009223;28;20022;-89
2022/09/12 04:12:21;;;;;;;1.70;1.60;;;9.90;99.90;;;;;;5017186;28;20032;-89
2022/09/12 04:14:47;;;;;;;1.70;1.60;;;9.80;99.90;;;;;;5020330;28;20045;-89
2022/09/12 04:17:13;;;;;;;2.13;1.73;;;9.90;99.90;;;;;;5017245;28;20515;-89
2022/09/12 04:19:39;;;;;;;1.80;1.70;;;9.90;99.90;;;;;;4999650;28;20033;-89
2022/09/12 04:22:05;;;;;;;3.67;1.55;;;9.90;99.90;;;;;;5013152;28;20040;-89
2022/09/12 04:24:31;;;;;;;1.85;1.58;;;9.90;99.90;;;;;;4994570;28;20026;-88
2022/09/12 04:26:57;;;;;;;2.40;1.85;;;9.90;99.90;;;;;;5005218;28;20041;-88
2022/09/12 04:29:23;;;;;;;1.60;1.50;;;9.90;99.90;;;;;;4989090;28;20049;-89
2022/09/12 04:31:49;;;;;;;1.60;1.50;;;9.80;99.90;;;;;;4990123;28;20045;-88
2022/09/12 04:34:15;;;;;;;2.05;1.83;;;9.80;99.90;;;;;;4987740;28;20050;-88
2022/09/12 04:36:41;;;;;;;10.02;2.42;;;9.80;99.90;;;;;;5018111;28;20033;-89
2022/09/12 04:39:07;;;;;;;55.95;4.03;;;9.60;99.90;;;;;;4998952;28;20029;-89
2022/09/12 04:41:35;;;;;;;15.73;2.78;;;9.20;99.90;;;;;;4992094;28;20127;-88
2022/09/12 04:44:13;;;;;;;10.23;2.30;;;8.80;99.90;;;;;;4995182;28;20025;-88
2022/09/12 04:46:45;;;;;;;1.60;1.50;;;8.60;99.90;;;;;;4992663;28;20030;-89
2022/09/12 04:49:13;;;;;;;1.70;1.60;;;8.60;99.90;;;;;;4998302;28;20024;-88
2022/09/12 04:51:40;;;;;;;1.70;1.60;;;8.80;99.90;;;;;;4997820;28;20034;-89
2022/09/12 04:54:17;;;;;;;1.60;1.53;;;8.90;99.90;;;;;;4992713;28;20398;-89
2022/09/12 04:56:45;;;;;;;2.53;1.73;;;9.10;99.90;;;;;;4988160;28;20330;-89
2022/09/12 04:59:13;;;;;;;1.40;1.30;;;9.10;99.90;;;;;;4992036;28;20030;-88
2022/09/12 05:01:39;;;;;;;2.05;1.85;;;9.10;99.90;;;;;;4990806;28;20045;-88
2022/09/12 05:04:05;;;;;;;2.00;1.80;;;9.20;99.90;;;;;;4988189;28;20034;-89
2022/09/12 05:06:34;;;;;;;1.85;1.70;;;9.30;99.90;;;;;;4993390;28;20041;-89
2022/09/12 05:09:01;;;;;;;2.08;1.88;;;9.30;99.90;;;;;;4995920;28;20046;-88
2022/09/12 05:11:32;;;;;;;1.85;1.75;;;9.30;99.90;;;;;;4988665;28;20025;-89
2022/09/12 05:13:58;;;;;;;4.18;2.10;;;9.30;99.90;;;;;;4984390;28;20035;-88
2022/09/12 05:16:26;;;;;;;1.90;1.80;;;9.30;99.90;;;;;;4987465;28;20108;-88
2022/09/12 05:18:52;;;;;;;1.80;1.33;;;9.20;99.90;;;;;;4994426;28;20030;-89
2022/09/12 05:21:22;;;;;;;1.65;1.55;;;9.20;99.90;;;;;;4995732;28;20033;-88
2022/09/12 05:23:52;;;;;;;3.58;1.90;;;9.30;99.90;;;;;;4991994;28;20029;-88
2022/09/12 05:26:20;;;;;;;9.13;2.20;;;9.30;99.90;;;;;;4989775;28;20082;-87
2022/09/12 05:28:46;;;;;;;2.05;1.85;;;9.40;99.90;;;;;;4995641;28;20033;-88
2022/09/12 05:31:19;;;;;;;2.55;2.00;;;9.40;99.90;;;;;;4987004;28;21151;-87
2022/09/12 05:33:46;;;;;;;1.90;1.80;;;9.40;99.90;;;;;;4987695;28;20022;-88
2022/09/12 05:36:21;;;;;;;1.70;1.60;;;9.50;99.90;;;;;;4988905;28;20030;-88
2022/09/12 05:38:47;;;;;;;1.90;1.77;;;9.50;99.90;;;;;;4993303;28;20102;-88
2022/09/12 05:41:21;;;;;;;2.17;1.92;;;9.60;99.90;;;;;;5010477;28;20103;-88
2022/09/12 05:43:54;;;;;;;1.80;1.70;;;9.60;99.90;;;;;;4992312;28;20033;-88
2022/09/12 05:46:26;;;;;;;3.58;1.90;;;9.60;99.90;;;;;;4989618;28;20499;-88
2022/09/12 05:48:53;;;;;;;10.15;2.30;;;9.60;99.90;;;;;;4990179;28;20030;-88
2022/09/12 05:51:33;;;;;;;4.07;2.00;;;9.60;99.90;;;;;;4995226;28;20589;-87
2022/09/12 05:54:00;;;;;;;2.58;1.83;;;9.40;99.90;;;;;;4992030;28;20041;-88
2022/09/12 05:56:29;;;;;;;2.20;2.00;;;9.40;99.90;;;;;;4991173;28;20749;-88
2022/09/12 05:58:57;;;;;;;1.85;1.75;;;9.40;99.90;;;;;;5012012;28;20048;-88
2022/09/12 06:01:25;;;;;;;1.65;1.55;;;9.40;99.90;;;;;;4995085;28;20041;-88
2022/09/12 06:03:54;;;;;;;2.05;1.85;;;9.40;99.90;;;;;;4994275;28;20092;-88
2022/09/12 06:06:22;;;;;;;1.90;1.80;;;9.40;99.90;;;;;;4996564;28;20502;-88
2022/09/12 06:08:50;;;;;;;2.95;2.17;;;9.50;99.90;;;;;;4986387;28;20100;-87
2022/09/12 06:11:21;;;;;;;1.70;1.60;;;9.60;99.90;;;;;;4986654;28;20042;-86
2022/09/12 06:13:49;;;;;;;2.35;2.15;;;9.70;99.90;;;;;;4989230;28;20034;-87
2022/09/12 06:16:21;;;;;;;2.28;2.08;;;9.90;99.90;;;;;;4991982;28;20026;-87
2022/09/12 06:18:55;;;;;;;2.30;2.10;;;10.00;99.90;;;;;;5004873;28;20026;-87
2022/09/12 06:21:22;;;;;;;4.40;2.42;;;10.10;99.90;;;;;;4992896;28;20041;-88
2022/09/12 06:23:50;;;;;;;2.70;2.50;;;10.20;99.90;;;;;;4993564;28;20040;-88
2022/09/12 06:26:20;;;;;;;2.72;2.40;;;10.40;99.90;;;;;;4991445;28;20470;-87
2022/09/12 06:28:46;;;;;;;2.50;2.28;;;10.40;99.90;;;;;;4990049;28;20080;-87
2022/09/12 06:31:17;;;;;;;2.90;2.42;;;10.50;99.90;;;;;;4991472;28;20030;-88
2022/09/12 06:33:46;;;;;;;2.88;2.40;;;10.60;99.90;;;;;;4988279;28;20022;-87
2022/09/12 06:36:15;;;;;;;2.72;2.33;;;10.80;99.90;;;;;;4990862;28;20508;-87
2022/09/12 06:38:41;;;;;;;;;;;10.90;99.90;;;;;;4990985;28;20637;-87
2022/09/12 06:41:10;;;;;;;3.13;2.20;;;11.00;99.90;;;;;;4993213;28;19972;-87
2022/09/12 06:43:36;;;;;;;2.38;2.17;;;11.10;99.90;;;;;;4999747;28;20061;-87
2022/09/12 06:46:02;;;;;;;3.22;2.80;;;11.20;99.90;;;;;;4995677;28;20037;-87
2022/09/12 06:48:28;;;;;;;2.58;2.38;;;11.10;99.90;;;;;;5004548;28;20026;-88
2022/09/12 06:51:12;;;;;;;2.40;2.20;;;11.30;99.90;;;;;;5000620;28;20060;-87
2022/09/12 06:53:38;;;;;;;5.00;2.30;;;11.50;99.90;;;;;;4994170;28;20026;-87
2022/09/12 06:56:06;;;;;;;3.47;2.28;;;11.60;99.90;;;;;;5004092;28;20033;-88
2022/09/12 06:58:33;;;;;;;3.20;2.30;;;11.70;99.90;;;;;;4994928;28;20033;-87
2022/09/12 07:01:05;;;;;;;3.47;2.22;;;11.90;99.90;;;;;;5004382;28;20067;-88
2022/09/12 07:03:31;;;;;;;2.60;2.38;;;12.00;99.90;;;;;;5016183;28;20940;-87
2022/09/12 07:06:02;;;;;;;2.50;2.30;;;12.10;99.90;;;;;;5002220;28;20064;-87
2022/09/12 07:08:30;;;;;;;4.07;2.25;;;12.10;99.90;;;;;;4993564;28;20103;-87
2022/09/12 07:10:57;;;;;;;2.67;2.47;;;12.10;99.90;;;;;;4998087;28;20034;-87
2022/09/12 07:13:24;;;;;;;2.97;2.53;;;12.00;99.90;;;;;;4998481;28;20022;-88
2022/09/12 07:15:50;;;;;;;2.67;2.47;;;12.10;99.90;;;;;;5001322;28;20292;-88
2022/09/12 07:18:16;;;;;;;2.88;2.50;;;12.20;99.90;;;;;;4996969;28;20046;-87
2022/09/12 07:20:42;;;;;;;2.45;2.22;;;12.30;99.90;;;;;;4999737;28;20030;-88
2022/09/12 07:23:08;;;;;;;2.95;2.60;;;12.40;99.90;;;;;;4999004;28;20083;-87
2022/09/12 07:25:33;;;;;;;2.92;2.45;;;12.40;99.90;;;;;;4998911;28;20461;-87
2022/09/12 07:27:59;;;;;;;2.40;2.17;;;12.70;99.90;;;;;;4997505;28;20607;-87
2022/09/12 07:30:25;;;;;;;3.08;2.70;;;12.90;99.90;;;;;;4992986;28;20022;-87
2022/09/12 07:32:52;;;;;;;2.60;2.40;;;13.00;99.90;;;;;;5001729;28;20034;-87
2022/09/12 07:35:18;;;;;;;2.60;2.30;;;13.20;99.90;;;;;;5004220;28;20112;-87
2022/09/12 07:37:44;;;;;;;2.58;2.20;;;13.30;99.90;;;;;;5005242;28;20030;-87
2022/09/12 07:40:10;;;;;;;2.40;2.20;;;13.40;99.90;;;;;;5004983;28;20037;-87
2022/09/12 07:42:36;;;;;;;2.17;1.98;;;13.70;99.90;;;;;;4995976;28;20037;-87
2022/09/12 07:45:01;;;;;;;2.40;2.20;;;13.70;99.90;;;;;;4991151;28;20057;-87
2022/09/12 07:47:27;;;;;;;3.00;2.17;;;13.70;99.90;;;;;;5019338;28;20030;-87
2022/09/12 07:49:53;;;;;;;3.42;2.22;;;13.90;99.90;;;;;;5000675;28;20826;-87
2022/09/12 07:52:18;;;;;;;2.85;2.30;;;14.10;99.90;;;;;;5007229;28;20117;-87
2022/09/12 07:54:44;;;;;;;2.97;1.95;;;14.30;99.90;;;;;;4996985;28;20037;-87
2022/09/12 07:57:09;;;;;;;5.97;2.10;;;14.60;99.90;;;;;;4992568;28;20144;-87
2022/09/12 07:59:41;;;;;;;1.98;1.80;;;14.90;99.90;;;;;;5012267;28;20041;-87
2022/09/12 08:02:11;;;;;;;2.00;1.75;;;15.00;99.90;;;;;;4991534;28;20108;-87
2022/09/12 08:04:37;;;;;;;2.60;2.28;;;15.30;99.90;;;;;;4997646;28;20030;-87
2022/09/12 08:07:03;;;;;;;3.47;2.25;;;15.40;99.90;;;;;;4983649;28;20115;-87
2022/09/12 08:09:28;;;;;;;2.90;1.92;;;15.40;99.90;;;;;;5017840;28;20047;-88
2022/09/12 08:11:54;;;;;;;2.10;1.90;;;15.60;99.90;;;;;;4993088;28;20034;-87
2022/09/12 08:14:20;;;;;;;2.20;2.10;;;15.60;99.90;;;;;;4996966;28;20038;-87
2022/09/12 08:16:46;;;;;;;4.18;2.03;;;15.80;99.90;;;;;;4999104;28;20470;-87
2022/09/12 08:19:12;;;;;;;1.90;1.80;;;16.00;99.90;;;;;;5006042;28;20053;-87
2022/09/12 08:21:38;;;;;;;2.10;1.90;;;16.30;99.90;;;;;;4995543;28;20060;-87
2022/09/12 08:24:05;;;;;;;2.03;1.90;;;16.40;99.90;;;;;;4996781;28;20088;-87
2022/09/12 08:26:32;;;;;;;2.33;2.10;;;16.70;99.90;;;;;;5001033;28;20018;-87
2022/09/12 08:28:58;;;;;;;2.33;2.13;;;16.80;99.90;;;;;;4995613;28;20422;-87
2022/09/12 08:31:25;;;;;;;2.38;1.88;;;16.90;99.90;;;;;;4992484;28;20042;-87
2022/09/12 08:33:54;;;;;;;1.77;1.67;;;17.10;99.90;;;;;;4996373;28;20424;-87
2022/09/12 08:36:21;;;;;;;2.45;2.20;;;17.20;99.90;;;;;;5002076;28;20037;-87
2022/09/12 08:38:56;;;;;;;2.15;2.05;;;17.30;99.90;;;;;;5006905;28;20103;-87
2022/09/12 08:41:46;;;;;;;2.17;1.98;;;17.20;99.90;;;;;;4996385;28;20034;-87
2022/09/12 08:44:30;;;;;;;2.35;1.67;;;17.40;99.90;;;;;;5001177;28;20030;-87
2022/09/12 08:47:20;;;;;;;2.45;2.25;;;17.50;99.90;;;;;;5012506;28;20121;-87
2022/09/12 08:50:08;;;;;;;2.88;1.80;;;17.80;99.90;;;;;;4995228;28;20025;-87
2022/09/12 08:53:01;;;;;;;3.08;2.47;;;18.10;99.90;;;;;;5015697;28;20037;-87
2022/09/12 08:55:31;;;;;;;3.58;2.50;;;18.00;99.90;;;;;;4998125;28;20503;-87
2022/09/12 08:57:59;;;;;;;2.67;2.38;;;17.90;99.90;;;;;;4997394;28;20037;-87
2022/09/12 09:00:43;;;;;;;3.85;2.55;;;17.80;99.90;;;;;;4989373;28;20085;-87
2022/09/12 09:03:21;;;;;;;3.58;2.17;;;17.80;99.90;;;;;;4989542;28;20058;-87
2022/09/12 09:06:01;;;;;;;3.63;2.45;;;17.80;99.90;;;;;;5010673;28;20028;-87
2022/09/12 09:08:46;;;;;;;3.75;2.60;;;18.00;99.90;;;;;;4996390;28;20046;-87
2022/09/12 09:11:53;;;;;;;3.33;2.78;;;18.10;99.90;;;;;;4992582;28;20038;-87
2022/09/12 09:17:10;;;;;;;3.75;2.25;;;18.40;99.90;;;;;;5017365;28;20127;-88
2022/09/12 09:19:44;;;;;;;4.97;2.90;;;18.40;99.90;;;;;;4993493;28;20037;-87
2022/09/12 09:22:25;;;;;;;4.10;2.28;;;18.40;99.90;;;;;;4996118;28;20030;-88
2022/09/12 09:25:01;;;;;;;2.50;2.30;;;18.50;99.90;;;;;;4993896;28;20116;-87
2022/09/12 09:27:42;;;;;;;4.82;2.50;;;18.50;99.90;;;;;;4991864;28;20029;-87
2022/09/12 09:30:20;;;;;;;2.50;2.30;;;18.60;99.90;;;;;;4994165;28;20037;-87
2022/09/12 09:32:59;;;;;;;2.95;2.40;;;18.80;99.90;;;;;;4991965;28;20034;-86
2022/09/12 09:36:04;;;;;;;3.10;2.20;;;18.80;99.90;;;;;;5015809;28;20505;-87
2022/09/12 09:38:36;;;;;;;3.95;2.50;;;18.80;98.00;;;;;;5001213;28;20517;-87
2022/09/12 09:41:39;;;;;;;5.30;4.15;;;18.90;96.60;;;;;;4997369;28;20097;-86
2022/09/12 09:44:05;;;;;;;3.03;2.50;;;18.90;99.90;;;;;;5018775;28;20026;-87
2022/09/12 09:46:31;;;;;;;2.90;2.47;;;18.90;98.10;;;;;;4999243;28;20018;-86
2022/09/12 09:48:58;;;;;;;2.92;2.40;;;18.90;96.30;;;;;;5006015;28;20914;-87
2022/09/12 09:51:27;;;;;;;2.77;2.47;;;18.90;98.00;;;;;;4995891;28;20034;-86
2022/09/12 09:54:19;;;;;;;2.80;2.50;;;18.90;99.90;;;;;;4996765;28;20336;-86
2022/09/12 09:56:44;;;;;;;3.58;2.78;;;19.00;96.60;;;;;;4989486;28;20478;-86
2022/09/12 09:59:25;;;;;;;2.47;2.17;;;18.90;94.70;;;;;;4993668;28;20026;-86
2022/09/12 10:01:56;;;;;;;3.45;2.72;;;18.90;92.90;;;;;;5000748;28;20034;-87
2022/09/12 10:04:25;;;;;;;3.17;2.58;;;18.90;96.00;;;;;;4998123;28;20022;-87
2022/09/12 10:06:56;;;;;;;2.40;2.05;;;19.30;94.00;;;;;;5003723;28;20091;-87
2022/09/12 10:09:23;;;;;;;2.55;2.35;;;19.50;91.30;;;;;;4999124;28;20132;-87
2022/09/12 10:11:49;;;;;;;3.08;2.17;;;19.50;94.60;;;;;;5000698;28;20029;-87
2022/09/12 10:14:38;;;;;;;2.35;2.15;;;19.40;93.00;;;;;;4991489;28;20030;-87
2022/09/12 10:17:22;;;;;;;2.97;2.10;;;19.80;92.40;;;;;;5018970;28;20051;-86
2022/09/12 10:19:48;;;;;;;1.95;1.77;;;20.10;91.80;;;;;;5001125;28;20029;-86
2022/09/12 10:22:21;;;;;;;3.53;2.63;;;20.50;91.20;;;;;;5002376;28;20084;-87
2022/09/12 10:24:51;;;;;;;2.28;1.90;;;20.50;89.60;;;;;;5020639;28;20022;-87
2022/09/12 10:27:24;;;;;;;4.57;2.70;;;20.50;91.00;;;;;;4998000;28;20022;-86
2022/09/12 10:29:54;;;;;;;3.08;2.50;;;20.40;91.20;;;;;;5002249;28;20434;-86
2022/09/12 10:32:36;;;;;;;2.67;2.10;;;20.20;92.60;;;;;;5014040;28;20030;-86
2022/09/12 10:35:24;;;;;;;3.40;3.10;;;20.30;89.30;;;;;;5001996;28;20026;-86
2022/09/12 10:37:52;;;;;;;4.78;2.50;;;20.30;93.80;;;;;;5001064;28;20495;-86
2022/09/12 10:40:37;;;;;;;2.40;2.20;;;20.30;92.10;;;;;;5016654;28;20087;-86
2022/09/12 10:43:24;;;;;;;5.00;2.35;;;20.40;91.10;;;;;;4998580;28;20060;-86
2022/09/12 10:45:50;;;;;;;2.63;2.25;;;20.50;91.70;;;;;;5005591;28;20021;-86
2022/09/12 10:48:35;;;;;;;3.42;2.22;;;20.70;92.70;;;;;;5004862;28;20099;-86
2022/09/12 10:51:01;;;;;;;2.17;1.70;;;21.00;90.50;;;;;;4999249;28;20064;-86
2022/09/12 10:53:31;;;;;;;2.72;2.22;;;20.70;79.60;;;;;;5005073;28;20080;-87
2022/09/12 10:56:19;;;;;;;2.42;2.10;;;20.60;86.10;;;;;;5007625;28;20042;-87
2022/09/12 10:59:06;;;;;;;3.03;2.00;;;20.60;79.00;;;;;;5003775;28;20057;-84
2022/09/12 11:01:32;;;;;;;2.30;2.08;;;20.60;83.40;;;;;;4994553;28;20125;-85
2022/09/12 11:04:13;;;;;;;2.95;1.95;;;20.70;77.90;;;;;;5006786;28;20026;-84
2022/09/12 11:06:54;;;;;;;2.58;2.20;;;21.00;83.00;;;;;;5004832;28;20025;-84
2022/09/12 11:09:41;;;;;;;2.63;2.42;;;21.20;83.30;;;;;;5006402;28;20073;-85
2022/09/12 11:12:26;;;;;;;;;;;21.40;84.00;;;;;;5017859;28;20029;-84
2022/09/12 11:15:29;;;;;;;2.30;2.00;;;21.50;82.30;;;;;;5015741;28;19933;-84
2022/09/12 11:18:12;;;;;;;2.53;2.33;;;21.20;81.30;;;;;;5011364;28;20120;-84
2022/09/12 11:21:09;;;;;;;2.47;2.28;;;21.00;79.50;;;;;;4998904;28;20033;-84
2022/09/12 11:23:54;;;;;;;;;;;21.00;81.90;;;;;;5019248;28;20030;-85
2022/09/12 11:26:32;;;;;;;3.65;2.40;;;21.10;84.50;;;;;;5018187;28;19913;-85
2022/09/12 11:29:06;;;;;;;;;;;21.10;86.60;;;;;;5003470;28;20154;-84
2022/09/12 11:31:56;;;;;;;3.25;1.90;;;21.10;80.70;;;;;;4999114;28;19977;-84
2022/09/12 11:34:33;;;;;;;2.38;2.15;;;21.00;73.40;;;;;;5019857;28;20098;-84
2022/09/12 11:37:04;;;;;;;2.22;2.05;;;20.90;77.00;;;;;;5023235;28;20104;-85
2022/09/12 11:39:39;;;;;;;2.20;2.03;;;20.90;74.60;;;;;;4999119;28;20025;-84
2022/09/12 11:42:14;;;;;;;2.35;1.88;;;21.20;72.10;;;;;;5004576;28;20026;-85
2022/09/12 11:44:45;;;;;;;2.10;1.80;;;21.30;68.50;;;;;;5005560;28;20025;-85
2022/09/12 11:47:12;;;;;;;1.80;1.70;;;21.10;65.40;;;;;;4999369;28;20036;-86
2022/09/12 11:49:40;;;;;;;3.15;2.10;;;21.10;72.30;;;;;;5001588;28;20025;-85
2022/09/12 11:52:10;;;;;;;;;;;21.10;70.80;;;;;;5003331;28;20521;-85
2022/09/12 11:54:59;;;;;;;4.88;2.13;;;21.10;71.40;;;;;;4999506;28;20373;-85
2022/09/12 11:57:46;;;;;;;2.30;2.10;;;20.90;69.90;;;;;;5022336;28;20022;-85
2022/09/12 12:00:19;;;;;;;6.57;3.03;;;21.00;72.70;;;;;;4999480;28;20084;-86
2022/09/12 12:03:08;;;;;;;2.20;1.63;;;21.20;78.10;;;;;;4996935;28;20498;-85
2022/09/12 12:05:42;;;;;;;2.10;1.90;;;21.40;66.80;;;;;;5004263;28;20036;-85
2022/09/12 12:08:09;;;;;;;2.92;2.17;;;21.20;68.00;;;;;;5003742;28;20041;-85
2022/09/12 12:10:41;;;;;;;2.25;2.05;;;21.20;73.20;;;;;;4996455;28;20029;-85
2022/09/12 12:13:27;;;;;;;2.35;2.05;;;21.20;73.50;;;;;;5001941;28;20149;-85
2022/09/12 12:15:57;;;;;;;2.45;1.92;;;21.10;78.40;;;;;;5004427;28;20049;-85
2022/09/12 12:18:36;;;;;;;2.33;2.10;;;21.00;70.50;;;;;;5000815;28;20029;-85
2022/09/12 12:21:27;;;;;;;2.38;2.22;;;21.00;69.10;;;;;;5003636;28;20438;-85
2022/09/12 12:24:08;;;;;;;3.45;1.67;;;21.00;71.60;;;;;;4998675;28;20030;-85
2022/09/12 12:26:39;;;;;;;1.90;1.80;;;21.00;68.60;;;;;;4999784;28;20033;-85
2022/09/12 12:29:20;;;;;;;2.38;2.17;;;20.90;69.40;;;;;;4998525;28;20030;-85
2022/09/12 12:31:58;;;;;;;5.63;2.28;;;20.90;71.40;;;;;;5010552;28;20504;-86
2022/09/12 12:34:33;;;;;;;3.78;2.08;;;21.00;70.70;;;;;;4996886;28;20113;-86
2022/09/12 12:37:19;;;;;;;1.60;1.50;;;21.10;77.60;;;;;;5018496;28;20038;-85
2022/09/12 12:39:49;;;;;;;2.05;1.83;;;21.10;70.70;;;;;;5006383;28;20029;-85
2022/09/12 12:42:29;;;;;;;3.38;2.03;;;21.30;66.90;;;;;;5001674;28;20490;-85
2022/09/12 12:44:55;;;;;;;2.35;1.80;;;21.40;71.50;;;;;;5009090;28;20034;-86
2022/09/12 12:47:24;;;;;;;1.80;1.70;;;21.50;63.80;;;;;;5001543;28;20491;-85
2022/09/12 12:49:59;;;;;;;1.90;1.80;;;21.50;65.00;;;;;;5002208;28;20048;-85
2022/09/12 12:52:29;;;;;;;2.17;1.75;;;21.40;65.20;;;;;;5016536;28;20036;-85
2022/09/12 12:54:59;;;;;;;1.70;1.60;;;21.20;64.30;;;;;;5003511;28;20165;-83
2022/09/12 12:57:34;;;;;;;1.95;1.85;;;21.20;64.10;;;;;;4991588;28;20030;-85
2022/09/12 13:00:28;;;;;;;1.88;1.73;;;21.30;69.30;;;;;;4998922;28;20037;-85
2022/09/12 13:03:04;;;;;;;1.80;1.70;;;21.50;69.60;;;;;;5023530;28;20125;-85
2022/09/12 13:05:39;;;;;;;2.22;2.03;;;21.40;63.70;;;;;;4994609;28;20633;-86
2022/09/12 13:08:26;;;;;;;1.77;1.67;;;21.50;62.90;;;;;;5003311;28;20073;-85
2022/09/12 13:10:56;;;;;;;3.15;1.90;;;21.50;60.80;;;;;;4997793;28;20025;-85
2022/09/12 13:13:35;;;;;;;2.75;1.80;;;21.60;63.00;;;;;;5004025;28;20994;-85
2022/09/12 13:16:01;;;;;;;2.03;1.83;;;21.80;60.20;;;;;;4999976;28;20034;-86
2022/09/12 13:18:47;;;;;;;1.60;1.50;;;21.70;59.20;;;;;;5001187;28;20034;-85
2022/09/12 13:21:18;;;;;;;2.75;1.60;;;21.70;60.60;;;;;;5002217;28;20029;-85
2022/09/12 13:23:59;;;;;;;1.85;1.60;;;21.90;59.10;;;;;;5001108;28;20028;-85
2022/09/12 13:26:25;;;;;;;1.90;1.80;;;21.90;61.80;;;;;;4998494;28;20193;-86